Main page
METAR-TAF:

METAR-TAF

Airports :

Heraklion International Airport

Heraklion, Greece

latitude: 35-20N, longitude: 025-11E, elevation: 37 m

Current weather observation

The report was made 30 minutes ago, at 04:20 UTC
Wind 5 kt from the South/Southeast
Temperature 17°C
Humidity 88%
Pressure 1016 hPa
Visibility 10 km or more
Scattered clouds at a height of 2000 ft

METAR: LGIR 260420Z 16005KT 9999 SCT020 17/15 Q1016 NOSIG

Time: 07:50 (04:50 UTC)

Forecast

The report was made 5 hours and 50 minutes ago, at 23:00 UTC
Forecast valid from 26 at 00 UTC to 26 at 24 UTC
Wind 10 kt from the North/Northwest
Visibility 10 km or more
Few clouds at a height of 2500 ft
Probability 40% :
Temporary
from 26 at 09 UTC to 26 at 18 UTC
Visibility: 5000 m
Scattered clouds at a height of 2000 ft
Broken clouds at a height of 3000 ft
rain

TAF: LGIR 252300Z 2600/2624 33010KT 9999 FEW025 PROB40 TEMPO 2609/2618 5000 RA SCT020 BKN030

Weather observations and forecasts of more than 4000 airports (METAR and TAF reports).

The available stations are represented by yellow and red dots on the map.

Hover mouse over dot to see the name of the station.

Then click to see weather observations and forecasts.

To change the map : click on the green buttons with a black cross to zoom in, on the green button with a dash to zoom out, or on the green arrows for adjacent maps.


METAR-TAF: